sensor_id;sensor_type;location;lat;lon;timestamp;P1;durP1;ratioP1;P2;durP2;ratioP2
73264;SDS011;61493;51.008;14.088;2022-09-27T00:01:23;6.10;;;2.28;;
73264;SDS011;61493;51.008;14.088;2022-09-27T00:03:52;3.85;;;2.10;;
73264;SDS011;61493;51.008;14.088;2022-09-27T00:06:21;6.22;;;2.35;;
73264;SDS011;61493;51.008;14.088;2022-09-27T00:08:49;3.60;;;2.10;;
73264;SDS011;61493;51.008;14.088;2022-09-27T00:13:57;3.65;;;2.00;;
73264;SDS011;61493;51.008;14.088;2022-09-27T00:16:30;4.10;;;2.38;;
73264;SDS011;61493;51.008;14.088;2022-09-27T00:19:03;7.25;;;2.22;;
73264;SDS011;61493;51.008;14.088;2022-09-27T00:21:31;7.85;;;2.10;;
73264;SDS011;61493;51.008;14.088;2022-09-27T00:23:57;4.55;;;2.13;;
73264;SDS011;61493;51.008;14.088;2022-09-27T00:26:23;4.25;;;1.92;;
73264;SDS011;61493;51.008;14.088;2022-09-27T00:28:49;4.15;;;2.20;;
73264;SDS011;61493;51.008;14.088;2022-09-27T00:33:53;5.07;;;2.33;;
73264;SDS011;61493;51.008;14.088;2022-09-27T00:36:20;5.10;;;2.30;;
73264;SDS011;61493;51.008;14.088;2022-09-27T00:38:47;5.72;;;2.35;;
73264;SDS011;61493;51.008;14.088;2022-09-27T00:41:17;4.70;;;2.00;;
73264;SDS011;61493;51.008;14.088;2022-09-27T00:46:50;5.47;;;2.38;;
73264;SDS011;61493;51.008;14.088;2022-09-27T00:49:24;4.55;;;2.40;;
73264;SDS011;61493;51.008;14.088;2022-09-27T00:51:56;6.20;;;2.22;;
73264;SDS011;61493;51.008;14.088;2022-09-27T00:54:26;5.38;;;2.10;;
73264;SDS011;61493;51.008;14.088;2022-09-27T00:56:54;4.50;;;2.25;;
73264;SDS011;61493;51.008;14.088;2022-09-27T00:59:54;3.38;;;2.30;;
73264;SDS011;61493;51.008;14.088;2022-09-27T01:02:16;7.00;;;4.03;;
73264;SDS011;61493;51.008;14.088;2022-09-27T01:04:42;4.38;;;2.15;;
73264;SDS011;61493;51.008;14.088;2022-09-27T01:07:08;3.03;;;2.15;;
73264;SDS011;61493;51.008;14.088;2022-09-27T01:09:34;4.13;;;1.70;;
73264;SDS011;61493;51.008;14.088;2022-09-27T01:12:22;3.97;;;1.80;;
73264;SDS011;61493;51.008;14.088;2022-09-27T01:15:06;2.72;;;2.00;;
73264;SDS011;61493;51.008;14.088;2022-09-27T01:17:37;3.33;;;1.85;;
73264;SDS011;61493;51.008;14.088;2022-09-27T01:34:27;6.18;;;2.40;;
73264;SDS011;61493;51.008;14.088;2022-09-27T01:39:51;5.20;;;2.42;;
73264;SDS011;61493;51.008;14.088;2022-09-27T01:42:24;5.35;;;2.28;;
73264;SDS011;61493;51.008;14.088;2022-09-27T01:48:08;3.55;;;2.40;;
73264;SDS011;61493;51.008;14.088;2022-09-27T01:55:57;3.55;;;2.28;;
73264;SDS011;61493;51.008;14.088;2022-09-27T02:00:58;3.40;;;2.28;;
73264;SDS011;61493;51.008;14.088;2022-09-27T02:03:26;4.63;;;2.30;;
73264;SDS011;61493;51.008;14.088;2022-09-27T02:05:57;7.28;;;6.13;;
73264;SDS011;61493;51.008;14.088;2022-09-27T02:08:42;6.32;;;4.05;;
73264;SDS011;61493;51.008;14.088;2022-09-27T02:11:13;5.70;;;2.47;;
73264;SDS011;61493;51.008;14.088;2022-09-27T02:13:44;4.25;;;2.40;;
73264;SDS011;61493;51.008;14.088;2022-09-27T02:24:50;3.20;;;2.10;;
73264;SDS011;61493;51.008;14.088;2022-09-27T02:27:26;5.55;;;2.63;;
73264;SDS011;61493;51.008;14.088;2022-09-27T02:29:58;2.90;;;1.98;;
73264;SDS011;61493;51.008;14.088;2022-09-27T02:32:27;6.45;;;2.38;;
73264;SDS011;61493;51.008;14.088;2022-09-27T02:34:54;4.68;;;2.80;;
73264;SDS011;61493;51.008;14.088;2022-09-27T02:37:21;9.98;;;3.03;;
73264;SDS011;61493;51.008;14.088;2022-09-27T02:39:49;4.32;;;2.50;;
73264;SDS011;61493;51.008;14.088;2022-09-27T02:42:15;7.88;;;2.60;;
73264;SDS011;61493;51.008;14.088;2022-09-27T02:44:40;3.17;;;1.80;;
73264;SDS011;61493;51.008;14.088;2022-09-27T02:47:07;2.92;;;2.03;;
73264;SDS011;61493;51.008;14.088;2022-09-27T02:50:02;8.70;;;2.33;;
73264;SDS011;61493;51.008;14.088;2022-09-27T02:52:42;4.05;;;2.10;;
73264;SDS011;61493;51.008;14.088;2022-09-27T02:55:44;6.40;;;2.53;;
73264;SDS011;61493;51.008;14.088;2022-09-27T03:00:47;4.75;;;2.35;;
73264;SDS011;61493;51.008;14.088;2022-09-27T03:03:44;5.43;;;2.50;;
73264;SDS011;61493;51.008;14.088;2022-09-27T03:06:12;6.75;;;2.28;;
73264;SDS011;61493;51.008;14.088;2022-09-27T03:08:40;3.47;;;2.40;;
73264;SDS011;61493;51.008;14.088;2022-09-27T03:11:05;6.82;;;3.00;;
73264;SDS011;61493;51.008;14.088;2022-09-27T03:13:31;4.88;;;2.80;;
73264;SDS011;61493;51.008;14.088;2022-09-27T03:15:58;5.25;;;2.72;;
73264;SDS011;61493;51.008;14.088;2022-09-27T03:18:24;4.28;;;2.38;;
73264;SDS011;61493;51.008;14.088;2022-09-27T03:20:51;5.53;;;3.00;;
73264;SDS011;61493;51.008;14.088;2022-09-27T03:23:23;3.92;;;2.88;;
73264;SDS011;61493;51.008;14.088;2022-09-27T03:25:49;7.22;;;2.67;;
73264;SDS011;61493;51.008;14.088;2022-09-27T03:28:18;4.85;;;3.00;;
73264;SDS011;61493;51.008;14.088;2022-09-27T03:30:44;5.05;;;3.30;;
73264;SDS011;61493;51.008;14.088;2022-09-27T03:33:10;5.60;;;3.35;;
73264;SDS011;61493;51.008;14.088;2022-09-27T03:35:36;9.38;;;3.63;;
73264;SDS011;61493;51.008;14.088;2022-09-27T03:38:02;4.45;;;2.97;;
73264;SDS011;61493;51.008;14.088;2022-09-27T03:40:28;5.13;;;3.63;;
73264;SDS011;61493;51.008;14.088;2022-09-27T03:42:54;6.78;;;3.70;;
73264;SDS011;61493;51.008;14.088;2022-09-27T03:45:22;8.20;;;3.25;;
73264;SDS011;61493;51.008;14.088;2022-09-27T03:47:47;8.05;;;3.95;;
73264;SDS011;61493;51.008;14.088;2022-09-27T03:50:12;8.00;;;3.53;;
73264;SDS011;61493;51.008;14.088;2022-09-27T03:52:38;8.10;;;3.67;;
73264;SDS011;61493;51.008;14.088;2022-09-27T03:55:04;5.70;;;3.55;;
73264;SDS011;61493;51.008;14.088;2022-09-27T03:57:30;5.95;;;3.72;;
73264;SDS011;61493;51.008;14.088;2022-09-27T03:59:56;9.88;;;3.67;;
73264;SDS011;61493;51.008;14.088;2022-09-27T04:02:24;6.85;;;4.07;;
73264;SDS011;61493;51.008;14.088;2022-09-27T04:04:49;7.55;;;3.83;;
73264;SDS011;61493;51.008;14.088;2022-09-27T04:07:15;7.45;;;3.72;;
73264;SDS011;61493;51.008;14.088;2022-09-27T04:09:41;8.02;;;3.58;;
73264;SDS011;61493;51.008;14.088;2022-09-27T04:12:08;10.10;;;4.60;;
73264;SDS011;61493;51.008;14.088;2022-09-27T04:14:33;7.88;;;4.57;;
73264;SDS011;61493;51.008;14.088;2022-09-27T04:16:59;9.63;;;4.65;;
73264;SDS011;61493;51.008;14.088;2022-09-27T04:19:24;8.88;;;4.47;;
73264;SDS011;61493;51.008;14.088;2022-09-27T04:21:49;6.85;;;4.95;;
73264;SDS011;61493;51.008;14.088;2022-09-27T04:24:14;7.32;;;4.10;;
73264;SDS011;61493;51.008;14.088;2022-09-27T04:26:40;8.73;;;4.75;;
73264;SDS011;61493;51.008;14.088;2022-09-27T04:29:05;7.50;;;4.20;;
73264;SDS011;61493;51.008;14.088;2022-09-27T04:31:30;10.95;;;5.25;;
73264;SDS011;61493;51.008;14.088;2022-09-27T04:33:56;7.80;;;4.57;;
73264;SDS011;61493;51.008;14.088;2022-09-27T04:36:22;8.85;;;4.97;;
73264;SDS011;61493;51.008;14.088;2022-09-27T04:39:03;7.45;;;4.43;;
73264;SDS011;61493;51.008;14.088;2022-09-27T04:41:31;8.32;;;4.40;;
73264;SDS011;61493;51.008;14.088;2022-09-27T04:43:57;9.10;;;5.05;;
73264;SDS011;61493;51.008;14.088;2022-09-27T04:46:25;7.63;;;4.38;;
73264;SDS011;61493;51.008;14.088;2022-09-27T04:48:56;7.93;;;4.53;;
73264;SDS011;61493;51.008;14.088;2022-09-27T04:51:25;8.57;;;4.15;;
73264;SDS011;61493;51.008;14.088;2022-09-27T04:53:51;7.45;;;4.40;;
73264;SDS011;61493;51.008;14.088;2022-09-27T04:56:16;6.93;;;4.32;;
73264;SDS011;61493;51.008;14.088;2022-09-27T04:58:42;8.98;;;4.95;;
73264;SDS011;61493;51.008;14.088;2022-09-27T05:01:07;8.68;;;5.18;;
73264;SDS011;61493;51.008;14.088;2022-09-27T05:03:33;7.28;;;4.40;;
73264;SDS011;61493;51.008;14.088;2022-09-27T05:05:59;8.73;;;4.88;;
73264;SDS011;61493;51.008;14.088;2022-09-27T05:08:24;7.13;;;4.05;;
73264;SDS011;61493;51.008;14.088;2022-09-27T05:10:50;7.47;;;4.90;;
73264;SDS011;61493;51.008;14.088;2022-09-27T05:13:15;9.65;;;4.55;;
73264;SDS011;61493;51.008;14.088;2022-09-27T05:15:42;7.30;;;4.47;;
73264;SDS011;61493;51.008;14.088;2022-09-27T05:18:08;8.57;;;4.82;;
73264;SDS011;61493;51.008;14.088;2022-09-27T05:20:34;5.82;;;4.28;;
73264;SDS011;61493;51.008;14.088;2022-09-27T05:22:59;9.32;;;4.63;;
73264;SDS011;61493;51.008;14.088;2022-09-27T05:25:25;7.78;;;4.45;;
73264;SDS011;61493;51.008;14.088;2022-09-27T05:27:50;7.85;;;4.43;;
73264;SDS011;61493;51.008;14.088;2022-09-27T05:30:16;10.05;;;5.70;;
73264;SDS011;61493;51.008;14.088;2022-09-27T05:32:42;7.78;;;5.28;;
73264;SDS011;61493;51.008;14.088;2022-09-27T05:35:08;6.72;;;4.63;;
73264;SDS011;61493;51.008;14.088;2022-09-27T05:37:33;7.57;;;4.60;;
73264;SDS011;61493;51.008;14.088;2022-09-27T05:39:59;8.27;;;5.13;;
73264;SDS011;61493;51.008;14.088;2022-09-27T05:42:24;9.20;;;4.88;;
73264;SDS011;61493;51.008;14.088;2022-09-27T05:44:49;8.40;;;4.82;;
73264;SDS011;61493;51.008;14.088;2022-09-27T05:47:15;9.43;;;5.20;;
73264;SDS011;61493;51.008;14.088;2022-09-27T05:49:40;9.35;;;5.35;;
73264;SDS011;61493;51.008;14.088;2022-09-27T05:52:06;8.18;;;4.35;;
73264;SDS011;61493;51.008;14.088;2022-09-27T05:54:31;8.20;;;4.97;;
73264;SDS011;61493;51.008;14.088;2022-09-27T05:56:57;9.45;;;5.40;;
73264;SDS011;61493;51.008;14.088;2022-09-27T05:59:23;8.23;;;5.28;;
73264;SDS011;61493;51.008;14.088;2022-09-27T06:01:52;11.80;;;5.07;;
73264;SDS011;61493;51.008;14.088;2022-09-27T06:04:18;7.55;;;4.68;;
73264;SDS011;61493;51.008;14.088;2022-09-27T06:06:44;6.43;;;3.92;;
73264;SDS011;61493;51.008;14.088;2022-09-27T06:09:10;8.27;;;4.88;;
73264;SDS011;61493;51.008;14.088;2022-09-27T06:11:36;6.18;;;4.15;;
73264;SDS011;61493;51.008;14.088;2022-09-27T06:14:01;7.70;;;4.85;;
73264;SDS011;61493;51.008;14.088;2022-09-27T06:16:27;7.88;;;4.82;;
73264;SDS011;61493;51.008;14.088;2022-09-27T06:18:52;7.72;;;4.78;;
73264;SDS011;61493;51.008;14.088;2022-09-27T06:21:17;6.85;;;4.60;;
73264;SDS011;61493;51.008;14.088;2022-09-27T06:23:43;9.20;;;4.72;;
73264;SDS011;61493;51.008;14.088;2022-09-27T06:26:08;9.93;;;4.65;;
73264;SDS011;61493;51.008;14.088;2022-09-27T06:28:34;7.78;;;4.47;;
73264;SDS011;61493;51.008;14.088;2022-09-27T06:31:00;7.22;;;4.25;;
73264;SDS011;61493;51.008;14.088;2022-09-27T06:33:25;10.50;;;4.60;;
73264;SDS011;61493;51.008;14.088;2022-09-27T06:35:54;10.23;;;5.15;;
73264;SDS011;61493;51.008;14.088;2022-09-27T06:38:19;7.65;;;5.03;;
73264;SDS011;61493;51.008;14.088;2022-09-27T06:40:49;9.82;;;4.60;;
73264;SDS011;61493;51.008;14.088;2022-09-27T06:43:16;7.35;;;3.90;;
73264;SDS011;61493;51.008;14.088;2022-09-27T06:45:46;9.00;;;4.30;;
73264;SDS011;61493;51.008;14.088;2022-09-27T06:48:12;6.53;;;4.38;;
73264;SDS011;61493;51.008;14.088;2022-09-27T06:50:40;8.93;;;4.65;;
73264;SDS011;61493;51.008;14.088;2022-09-27T06:53:08;8.13;;;4.65;;
73264;SDS011;61493;51.008;14.088;2022-09-27T06:55:35;5.72;;;3.70;;
73264;SDS011;61493;51.008;14.088;2022-09-27T06:58:02;7.40;;;3.90;;
73264;SDS011;61493;51.008;14.088;2022-09-27T07:00:49;8.27;;;4.60;;
73264;SDS011;61493;51.008;14.088;2022-09-27T07:03:16;7.90;;;4.00;;
73264;SDS011;61493;51.008;14.088;2022-09-27T07:05:41;10.32;;;4.00;;
73264;SDS011;61493;51.008;14.088;2022-09-27T07:08:08;7.95;;;4.28;;
73264;SDS011;61493;51.008;14.088;2022-09-27T07:10:35;7.25;;;4.22;;
73264;SDS011;61493;51.008;14.088;2022-09-27T07:13:11;6.88;;;3.72;;
73264;SDS011;61493;51.008;14.088;2022-09-27T07:15:36;6.72;;;3.60;;
73264;SDS011;61493;51.008;14.088;2022-09-27T07:18:04;5.63;;;3.35;;
73264;SDS011;61493;51.008;14.088;2022-09-27T07:20:31;4.85;;;3.47;;
73264;SDS011;61493;51.008;14.088;2022-09-27T07:22:57;5.88;;;3.85;;
73264;SDS011;61493;51.008;14.088;2022-09-27T07:25:23;4.57;;;3.00;;
73264;SDS011;61493;51.008;14.088;2022-09-27T07:27:49;8.27;;;3.85;;
73264;SDS011;61493;51.008;14.088;2022-09-27T07:30:14;6.85;;;3.70;;
73264;SDS011;61493;51.008;14.088;2022-09-27T07:32:40;5.75;;;3.83;;
73264;SDS011;61493;51.008;14.088;2022-09-27T07:35:08;7.25;;;3.90;;
73264;SDS011;61493;51.008;14.088;2022-09-27T07:37:34;5.93;;;3.63;;
73264;SDS011;61493;51.008;14.088;2022-09-27T07:40:05;6.00;;;3.50;;
73264;SDS011;61493;51.008;14.088;2022-09-27T07:42:32;6.05;;;3.50;;
73264;SDS011;61493;51.008;14.088;2022-09-27T07:44:58;4.57;;;3.10;;
73264;SDS011;61493;51.008;14.088;2022-09-27T07:47:23;4.78;;;3.63;;
73264;SDS011;61493;51.008;14.088;2022-09-27T07:49:50;4.88;;;3.40;;
73264;SDS011;61493;51.008;14.088;2022-09-27T07:52:16;6.38;;;3.00;;
73264;SDS011;61493;51.008;14.088;2022-09-27T07:54:43;5.78;;;3.22;;
73264;SDS011;61493;51.008;14.088;2022-09-27T07:57:09;5.07;;;3.22;;
73264;SDS011;61493;51.008;14.088;2022-09-27T07:59:35;4.63;;;3.20;;
73264;SDS011;61493;51.008;14.088;2022-09-27T08:02:00;4.30;;;3.15;;
73264;SDS011;61493;51.008;14.088;2022-09-27T08:04:25;5.47;;;3.40;;
73264;SDS011;61493;51.008;14.088;2022-09-27T08:06:51;3.30;;;2.50;;
73264;SDS011;61493;51.008;14.088;2022-09-27T08:09:16;4.03;;;2.72;;
73264;SDS011;61493;51.008;14.088;2022-09-27T08:11:41;4.45;;;3.05;;
73264;SDS011;61493;51.008;14.088;2022-09-27T08:14:08;4.57;;;2.15;;
73264;SDS011;61493;51.008;14.088;2022-09-27T08:16:37;3.78;;;2.92;;
73264;SDS011;61493;51.008;14.088;2022-09-27T08:19:02;5.13;;;2.72;;
73264;SDS011;61493;51.008;14.088;2022-09-27T08:21:31;4.20;;;2.58;;
73264;SDS011;61493;51.008;14.088;2022-09-27T08:23:56;3.45;;;2.50;;
73264;SDS011;61493;51.008;14.088;2022-09-27T08:26:22;4.88;;;2.60;;
73264;SDS011;61493;51.008;14.088;2022-09-27T08:28:48;3.85;;;2.45;;
73264;SDS011;61493;51.008;14.088;2022-09-27T08:31:13;4.10;;;2.90;;
73264;SDS011;61493;51.008;14.088;2022-09-27T08:33:38;4.25;;;2.25;;
73264;SDS011;61493;51.008;14.088;2022-09-27T08:36:03;4.05;;;2.72;;
73264;SDS011;61493;51.008;14.088;2022-09-27T08:38:35;4.00;;;2.58;;
73264;SDS011;61493;51.008;14.088;2022-09-27T08:41:00;3.88;;;2.47;;
73264;SDS011;61493;51.008;14.088;2022-09-27T08:44:05;3.10;;;2.20;;
73264;SDS011;61493;51.008;14.088;2022-09-27T08:49:17;6.97;;;2.60;;
73264;SDS011;61493;51.008;14.088;2022-09-27T08:51:49;3.90;;;2.60;;
73264;SDS011;61493;51.008;14.088;2022-09-27T08:54:21;4.78;;;2.13;;
73264;SDS011;61493;51.008;14.088;2022-09-27T08:56:51;4.00;;;2.25;;
73264;SDS011;61493;51.008;14.088;2022-09-27T08:59:18;4.20;;;2.38;;
73264;SDS011;61493;51.008;14.088;2022-09-27T09:01:49;3.95;;;2.50;;
73264;SDS011;61493;51.008;14.088;2022-09-27T09:04:34;3.50;;;2.47;;
73264;SDS011;61493;51.008;14.088;2022-09-27T09:10:29;3.60;;;2.53;;
73264;SDS011;61493;51.008;14.088;2022-09-27T09:13:32;3.78;;;2.45;;
73264;SDS011;61493;51.008;14.088;2022-09-27T09:16:13;5.00;;;2.95;;
73264;SDS011;61493;51.008;14.088;2022-09-27T09:30:24;5.57;;;3.60;;
73264;SDS011;61493;51.008;14.088;2022-09-27T09:33:20;4.30;;;2.78;;
73264;SDS011;61493;51.008;14.088;2022-09-27T09:36:00;4.78;;;3.65;;
73264;SDS011;61493;51.008;14.088;2022-09-27T09:44:33;4.55;;;3.03;;
73264;SDS011;61493;51.008;14.088;2022-09-27T09:46:54;5.15;;;3.70;;
73264;SDS011;61493;51.008;14.088;2022-09-27T09:49:27;5.93;;;3.70;;
73264;SDS011;61493;51.008;14.088;2022-09-27T09:52:10;4.70;;;2.97;;
73264;SDS011;61493;51.008;14.088;2022-09-27T09:54:49;3.92;;;3.00;;
73264;SDS011;61493;51.008;14.088;2022-09-27T09:57:24;5.05;;;2.97;;
73264;SDS011;61493;51.008;14.088;2022-09-27T10:00:06;4.97;;;3.00;;
73264;SDS011;61493;51.008;14.088;2022-09-27T10:02:38;4.30;;;3.03;;
73264;SDS011;61493;51.008;14.088;2022-09-27T10:05:06;4.63;;;2.92;;
73264;SDS011;61493;51.008;14.088;2022-09-27T10:07:35;1.30;;;1.20;;
73264;SDS011;61493;51.008;14.088;2022-09-27T10:10:02;1.50;;;0.93;;
73264;SDS011;61493;51.008;14.088;2022-09-27T10:12:29;1.25;;;0.77;;
73264;SDS011;61493;51.008;14.088;2022-09-27T10:14:56;0.95;;;0.50;;
73264;SDS011;61493;51.008;14.088;2022-09-27T10:17:26;1.77;;;0.88;;
73264;SDS011;61493;51.008;14.088;2022-09-27T10:19:59;1.25;;;0.70;;
73264;SDS011;61493;51.008;14.088;2022-09-27T10:25:07;0.82;;;0.57;;
73264;SDS011;61493;51.008;14.088;2022-09-27T10:27:37;1.27;;;0.80;;
73264;SDS011;61493;51.008;14.088;2022-09-27T10:30:03;1.17;;;0.70;;
73264;SDS011;61493;51.008;14.088;2022-09-27T10:32:30;1.92;;;0.77;;
73264;SDS011;61493;51.008;14.088;2022-09-27T10:35:21;1.23;;;0.47;;
73264;SDS011;61493;51.008;14.088;2022-09-27T10:40:41;2.63;;;1.02;;
73264;SDS011;61493;51.008;14.088;2022-09-27T10:43:23;2.00;;;1.00;;
73264;SDS011;61493;51.008;14.088;2022-09-27T10:45:58;1.98;;;1.00;;
73264;SDS011;61493;51.008;14.088;2022-09-27T10:48:26;2.03;;;1.25;;
73264;SDS011;61493;51.008;14.088;2022-09-27T10:50:57;1.95;;;1.20;;
73264;SDS011;61493;51.008;14.088;2022-09-27T10:53:25;2.97;;;1.60;;
73264;SDS011;61493;51.008;14.088;2022-09-27T10:55:51;3.83;;;1.58;;
73264;SDS011;61493;51.008;14.088;2022-09-27T10:58:19;4.40;;;1.25;;
73264;SDS011;61493;51.008;14.088;2022-09-27T11:00:55;2.92;;;1.38;;
73264;SDS011;61493;51.008;14.088;2022-09-27T11:03:24;2.53;;;1.40;;
73264;SDS011;61493;51.008;14.088;2022-09-27T11:05:52;1.67;;;1.17;;
73264;SDS011;61493;51.008;14.088;2022-09-27T11:13:38;3.40;;;1.40;;
73264;SDS011;61493;51.008;14.088;2022-09-27T11:16:08;3.40;;;1.98;;
73264;SDS011;61493;51.008;14.088;2022-09-27T11:53:52;0.52;;;0.32;;
73264;SDS011;61493;51.008;14.088;2022-09-27T12:02:02;0.20;;;0.20;;
73264;SDS011;61493;51.008;14.088;2022-09-27T12:04:46;0.30;;;0.20;;
73264;SDS011;61493;51.008;14.088;2022-09-27T12:07:25;0.52;;;0.20;;
73264;SDS011;61493;51.008;14.088;2022-09-27T12:09:52;0.30;;;0.15;;
73264;SDS011;61493;51.008;14.088;2022-09-27T12:12:22;0.20;;;0.20;;
73264;SDS011;61493;51.008;14.088;2022-09-27T12:14:59;2.63;;;0.30;;
73264;SDS011;61493;51.008;14.088;2022-09-27T12:17:32;0.25;;;0.10;;
73264;SDS011;61493;51.008;14.088;2022-09-27T12:20:02;0.20;;;0.10;;
73264;SDS011;61493;51.008;14.088;2022-09-27T12:22:33;0.52;;;0.25;;
73264;SDS011;61493;51.008;14.088;2022-09-27T12:25:11;0.28;;;0.10;;
73264;SDS011;61493;51.008;14.088;2022-09-27T12:27:45;0.13;;;0.10;;
73264;SDS011;61493;51.008;14.088;2022-09-27T12:30:16;0.20;;;0.20;;
73264;SDS011;61493;51.008;14.088;2022-09-27T12:35:29;0.35;;;0.10;;
73264;SDS011;61493;51.008;14.088;2022-09-27T12:37:59;2.55;;;0.20;;
73264;SDS011;61493;51.008;14.088;2022-09-27T12:40:31;0.60;;;0.30;;
73264;SDS011;61493;51.008;14.088;2022-09-27T12:49:14;0.47;;;0.20;;
73264;SDS011;61493;51.008;14.088;2022-09-27T12:51:46;2.10;;;0.43;;
73264;SDS011;61493;51.008;14.088;2022-09-27T12:56:55;0.30;;;0.30;;
73264;SDS011;61493;51.008;14.088;2022-09-27T13:02:46;0.40;;;0.38;;
73264;SDS011;61493;51.008;14.088;2022-09-27T13:10:57;0.40;;;0.30;;
73264;SDS011;61493;51.008;14.088;2022-09-27T13:13:33;1.45;;;1.08;;
73264;SDS011;61493;51.008;14.088;2022-09-27T13:16:00;0.65;;;0.30;;
73264;SDS011;61493;51.008;14.088;2022-09-27T13:21:04;1.20;;;0.70;;
73264;SDS011;61493;51.008;14.088;2022-09-27T13:31:02;4.55;;;0.63;;
73264;SDS011;61493;51.008;14.088;2022-09-27T13:33:30;0.20;;;0.20;;
73264;SDS011;61493;51.008;14.088;2022-09-27T13:42:11;0.57;;;0.32;;
73264;SDS011;61493;51.008;14.088;2022-09-27T13:46:48;0.40;;;0.30;;
73264;SDS011;61493;51.008;14.088;2022-09-27T13:49:24;0.63;;;0.47;;
73264;SDS011;61493;51.008;14.088;2022-09-27T13:57:39;0.32;;;0.30;;
73264;SDS011;61493;51.008;14.088;2022-09-27T14:00:15;1.98;;;0.47;;
73264;SDS011;61493;51.008;14.088;2022-09-27T14:03:00;0.38;;;0.28;;
73264;SDS011;61493;51.008;14.088;2022-09-27T14:05:31;0.63;;;0.60;;
73264;SDS011;61493;51.008;14.088;2022-09-27T14:08:37;0.55;;;0.40;;
73264;SDS011;61493;51.008;14.088;2022-09-27T14:11:27;0.30;;;0.20;;
73264;SDS011;61493;51.008;14.088;2022-09-27T14:14:03;0.50;;;0.40;;
73264;SDS011;61493;51.008;14.088;2022-09-27T14:16:33;0.65;;;0.32;;
73264;SDS011;61493;51.008;14.088;2022-09-27T14:19:00;1.63;;;0.45;;
73264;SDS011;61493;51.008;14.088;2022-09-27T14:21:33;0.98;;;0.43;;
73264;SDS011;61493;51.008;14.088;2022-09-27T14:26:45;13.95;;;5.90;;
73264;SDS011;61493;51.008;14.088;2022-09-27T14:29:16;2.60;;;1.05;;
73264;SDS011;61493;51.008;14.088;2022-09-27T14:31:45;0.65;;;0.43;;
73264;SDS011;61493;51.008;14.088;2022-09-27T14:34:13;1.38;;;0.80;;
73264;SDS011;61493;51.008;14.088;2022-09-27T14:36:44;2.08;;;0.57;;
73264;SDS011;61493;51.008;14.088;2022-09-27T14:39:32;3.08;;;0.60;;
73264;SDS011;61493;51.008;14.088;2022-09-27T14:42:02;10.68;;;0.70;;
73264;SDS011;61493;51.008;14.088;2022-09-27T14:44:30;0.40;;;0.30;;
73264;SDS011;61493;51.008;14.088;2022-09-27T14:47:09;0.93;;;0.43;;
73264;SDS011;61493;51.008;14.088;2022-09-27T14:49:45;0.30;;;0.30;;
73264;SDS011;61493;51.008;14.088;2022-09-27T14:52:16;0.88;;;0.35;;
73264;SDS011;61493;51.008;14.088;2022-09-27T14:54:53;4.05;;;1.30;;
73264;SDS011;61493;51.008;14.088;2022-09-27T14:57:20;2.72;;;0.98;;
73264;SDS011;61493;51.008;14.088;2022-09-27T14:59:48;1.70;;;0.80;;
73264;SDS011;61493;51.008;14.088;2022-09-27T15:02:16;8.23;;;0.82;;
73264;SDS011;61493;51.008;14.088;2022-09-27T15:04:44;0.90;;;0.60;;
73264;SDS011;61493;51.008;14.088;2022-09-27T15:07:11;1.23;;;0.80;;
73264;SDS011;61493;51.008;14.088;2022-09-27T15:09:40;0.70;;;0.60;;
73264;SDS011;61493;51.008;14.088;2022-09-27T15:12:05;1.48;;;0.90;;
73264;SDS011;61493;51.008;14.088;2022-09-27T15:14:32;1.80;;;0.95;;
73264;SDS011;61493;51.008;14.088;2022-09-27T15:17:15;0.95;;;0.63;;
73264;SDS011;61493;51.008;14.088;2022-09-27T15:19:54;1.73;;;0.55;;
73264;SDS011;61493;51.008;14.088;2022-09-27T15:22:32;0.65;;;0.47;;
73264;SDS011;61493;51.008;14.088;2022-09-27T15:25:19;0.63;;;0.40;;
73264;SDS011;61493;51.008;14.088;2022-09-27T15:33:19;3.88;;;2.25;;
73264;SDS011;61493;51.008;14.088;2022-09-27T15:35:50;1.42;;;1.00;;
73264;SDS011;61493;51.008;14.088;2022-09-27T15:38:30;3.20;;;2.90;;
73264;SDS011;61493;51.008;14.088;2022-09-27T15:49:19;1.20;;;1.10;;
73264;SDS011;61493;51.008;14.088;2022-09-27T15:51:55;2.10;;;1.27;;
73264;SDS011;61493;51.008;14.088;2022-09-27T15:54:26;1.58;;;1.27;;
73264;SDS011;61493;51.008;14.088;2022-09-27T15:56:59;2.17;;;0.70;;
73264;SDS011;61493;51.008;14.088;2022-09-27T15:59:28;0.52;;;0.52;;
73264;SDS011;61493;51.008;14.088;2022-09-27T16:01:56;1.13;;;0.93;;
73264;SDS011;61493;51.008;14.088;2022-09-27T16:04:23;2.72;;;0.88;;
73264;SDS011;61493;51.008;14.088;2022-09-27T16:06:55;0.68;;;0.65;;
73264;SDS011;61493;51.008;14.088;2022-09-27T16:09:22;0.70;;;0.55;;
73264;SDS011;61493;51.008;14.088;2022-09-27T16:11:48;1.67;;;1.25;;
73264;SDS011;61493;51.008;14.088;2022-09-27T16:14:14;2.05;;;0.90;;
73264;SDS011;61493;51.008;14.088;2022-09-27T16:16:43;1.13;;;0.75;;
73264;SDS011;61493;51.008;14.088;2022-09-27T16:19:10;0.68;;;0.68;;
73264;SDS011;61493;51.008;14.088;2022-09-27T16:21:36;1.25;;;0.60;;
73264;SDS011;61493;51.008;14.088;2022-09-27T16:24:02;1.30;;;0.80;;
73264;SDS011;61493;51.008;14.088;2022-09-27T16:26:28;0.80;;;0.68;;
73264;SDS011;61493;51.008;14.088;2022-09-27T16:28:53;1.48;;;0.70;;
73264;SDS011;61493;51.008;14.088;2022-09-27T16:31:19;18.23;;;9.27;;
73264;SDS011;61493;51.008;14.088;2022-09-27T16:33:46;7.97;;;4.95;;
73264;SDS011;61493;51.008;14.088;2022-09-27T16:36:13;4.15;;;3.05;;
73264;SDS011;61493;51.008;14.088;2022-09-27T16:38:43;4.00;;;2.92;;
73264;SDS011;61493;51.008;14.088;2022-09-27T16:41:12;6.13;;;5.50;;
73264;SDS011;61493;51.008;14.088;2022-09-27T16:43:37;4.85;;;2.92;;
73264;SDS011;61493;51.008;14.088;2022-09-27T16:46:03;3.53;;;1.88;;
73264;SDS011;61493;51.008;14.088;2022-09-27T16:48:31;2.60;;;1.60;;
73264;SDS011;61493;51.008;14.088;2022-09-27T16:51:01;2.47;;;1.60;;
73264;SDS011;61493;51.008;14.088;2022-09-27T16:53:55;2.35;;;1.27;;
73264;SDS011;61493;51.008;14.088;2022-09-27T16:56:20;2.50;;;1.50;;
73264;SDS011;61493;51.008;14.088;2022-09-27T16:58:46;1.85;;;1.30;;
73264;SDS011;61493;51.008;14.088;2022-09-27T17:01:14;2.17;;;1.30;;
73264;SDS011;61493;51.008;14.088;2022-09-27T17:06:36;1.88;;;1.25;;
73264;SDS011;61493;51.008;14.088;2022-09-27T17:09:02;3.85;;;1.10;;
73264;SDS011;61493;51.008;14.088;2022-09-27T17:11:28;1.38;;;1.05;;
73264;SDS011;61493;51.008;14.088;2022-09-27T17:13:53;3.78;;;1.67;;
73264;SDS011;61493;51.008;14.088;2022-09-27T17:16:19;2.78;;;1.35;;
73264;SDS011;61493;51.008;14.088;2022-09-27T17:18:46;2.58;;;1.30;;
73264;SDS011;61493;51.008;14.088;2022-09-27T17:21:11;1.55;;;0.70;;
73264;SDS011;61493;51.008;14.088;2022-09-27T17:23:37;1.85;;;0.88;;
73264;SDS011;61493;51.008;14.088;2022-09-27T17:26:03;1.92;;;0.70;;
73264;SDS011;61493;51.008;14.088;2022-09-27T17:28:38;2.58;;;0.60;;
73264;SDS011;61493;51.008;14.088;2022-09-27T17:31:10;1.52;;;0.80;;
73264;SDS011;61493;51.008;14.088;2022-09-27T17:33:39;1.98;;;0.80;;
73264;SDS011;61493;51.008;14.088;2022-09-27T17:36:08;1.15;;;1.00;;
73264;SDS011;61493;51.008;14.088;2022-09-27T17:38:36;1.42;;;1.02;;
73264;SDS011;61493;51.008;14.088;2022-09-27T17:41:02;4.60;;;1.70;;
73264;SDS011;61493;51.008;14.088;2022-09-27T17:43:28;2.42;;;1.38;;
73264;SDS011;61493;51.008;14.088;2022-09-27T17:45:59;3.75;;;1.70;;
73264;SDS011;61493;51.008;14.088;2022-09-27T17:48:25;4.82;;;1.67;;
73264;SDS011;61493;51.008;14.088;2022-09-27T17:53:38;2.50;;;1.08;;
73264;SDS011;61493;51.008;14.088;2022-09-27T17:56:03;2.63;;;1.20;;
73264;SDS011;61493;51.008;14.088;2022-09-27T17:58:29;1.50;;;0.90;;